createdAt,value
2022-10-09T00:02:00.629Z,12.55
2022-10-09T00:06:03.518Z,12.47
2022-10-09T00:10:05.922Z,12.39
2022-10-09T00:14:07.822Z,12.32
2022-10-09T00:18:12.011Z,12.27
2022-10-09T00:22:13.841Z,12.21
2022-10-09T00:26:16.375Z,12.13
2022-10-09T00:30:18.266Z,12.05
2022-10-09T00:34:20.148Z,11.96
2022-10-09T00:38:21.968Z,11.90
2022-10-09T00:42:26.009Z,11.82
2022-10-09T00:46:47.914Z,11.70
2022-10-09T00:50:54.112Z,11.58
2022-10-09T00:54:56.923Z,11.53
2022-10-09T00:58:59.489Z,11.53
2022-10-09T01:03:01.403Z,11.55
2022-10-09T01:07:13.328Z,11.54
2022-10-09T01:12:00.367Z,11.48
2022-10-09T01:16:28.362Z,11.40
2022-10-09T01:20:39.178Z,11.36
2022-10-09T01:24:47.860Z,11.30
2022-10-09T01:28:58.978Z,11.24
2022-10-09T01:33:02.668Z,11.18
2022-10-09T01:37:07.208Z,11.16
2022-10-09T01:41:09.701Z,11.15
2022-10-09T01:45:13.882Z,11.15
2022-10-09T01:49:36.806Z,11.20
2022-10-09T01:53:39.644Z,11.22
2022-10-09T01:57:56.719Z,11.21
2022-10-09T02:02:00.312Z,11.13
2022-10-09T02:06:05.716Z,11.08
2022-10-09T02:10:08.966Z,11.05
2022-10-09T02:14:11.480Z,10.99
2022-10-09T02:18:18.836Z,10.93
2022-10-09T02:22:31.925Z,10.90
2022-10-09T02:26:34.169Z,10.89
2022-10-09T02:31:19.273Z,10.88
2022-10-09T02:35:21.570Z,10.88
2022-10-09T02:39:23.508Z,10.91
2022-10-09T02:43:25.528Z,10.90
2022-10-09T02:47:27.367Z,10.82
2022-10-09T02:51:29.197Z,10.79
2022-10-09T02:55:31.032Z,10.75
2022-10-09T02:59:32.961Z,10.73
2022-10-09T03:03:35.176Z,10.69
2022-10-09T03:07:37.246Z,10.67
2022-10-09T03:11:39.074Z,10.64
2022-10-09T03:15:41.009Z,10.55
2022-10-09T03:19:42.973Z,10.49
2022-10-09T03:23:45.191Z,10.48
2022-10-09T03:27:47.021Z,10.48
2022-10-09T03:31:53.330Z,10.44
2022-10-09T03:35:55.672Z,10.34
2022-10-09T03:39:58.408Z,10.25
2022-10-09T03:44:00.429Z,10.13
2022-10-09T03:48:02.624Z,10.07
2022-10-09T03:52:04.486Z,10.02
2022-10-09T03:56:06.525Z,9.99
2022-10-09T04:00:10.105Z,9.97
2022-10-09T04:04:11.937Z,9.96
2022-10-09T04:08:14.277Z,9.99
2022-10-09T04:12:16.203Z,9.99
2022-10-09T04:16:18.153Z,10.01
2022-10-09T04:20:21.038Z,10.03
2022-10-09T04:24:22.942Z,9.98
2022-10-09T04:28:26.490Z,9.98
2022-10-09T04:32:28.410Z,10.00
2022-10-09T04:36:30.289Z,9.96
2022-10-09T04:40:32.093Z,9.94
2022-10-09T04:44:33.960Z,9.88
2022-10-09T04:48:40.188Z,9.83
2022-10-09T04:52:42.030Z,9.80
2022-10-09T04:56:43.957Z,9.72
2022-10-09T05:00:46.273Z,9.68
2022-10-09T05:04:48.248Z,9.65
2022-10-09T05:08:51.024Z,9.63
2022-10-09T05:12:53.254Z,9.59
2022-10-09T05:17:12.888Z,9.54
2022-10-09T05:21:16.609Z,9.47
2022-10-09T05:25:18.469Z,9.46
2022-10-09T05:29:20.473Z,9.49
2022-10-09T05:33:22.454Z,9.50
2022-10-09T05:37:24.313Z,9.50
2022-10-09T05:41:26.434Z,9.52
2022-10-09T05:45:28.285Z,9.48
2022-10-09T05:49:30.157Z,9.51
2022-10-09T05:53:32.195Z,9.53
2022-10-09T05:57:34.111Z,9.54
2022-10-09T06:01:39.035Z,9.57
2022-10-09T06:05:40.908Z,9.62
2022-10-09T06:09:42.897Z,9.64
2022-10-09T06:13:45.658Z,9.68
2022-10-09T06:17:47.580Z,9.65
2022-10-09T06:21:50.218Z,9.61
2022-10-09T06:25:57.833Z,9.60
2022-10-09T06:29:59.652Z,9.59
2022-10-09T06:34:02.900Z,9.66
2022-10-09T06:38:04.845Z,9.74
2022-10-09T06:42:06.694Z,9.80
2022-10-09T06:46:23.363Z,9.82
2022-10-09T06:50:25.269Z,9.83
2022-10-09T06:54:27.162Z,9.86
2022-10-09T06:58:29.330Z,9.90
2022-10-09T07:02:34.104Z,9.94
2022-10-09T07:06:41.762Z,9.97
2022-10-09T07:10:43.585Z,9.98
2022-10-09T07:14:45.515Z,10.03
2022-10-09T07:18:47.765Z,10.06
2022-10-09T07:22:49.865Z,10.04
2022-10-09T07:26:54.693Z,10.02
2022-10-09T07:30:56.962Z,9.98
2022-10-09T07:34:58.856Z,10.00
2022-10-09T07:39:01.305Z,10.08
2022-10-09T07:43:03.167Z,10.14
2022-10-09T07:47:05.054Z,10.09
2022-10-09T07:51:21.994Z,9.98
2022-10-09T07:55:23.946Z,9.94
2022-10-09T07:59:25.817Z,10.02
2022-10-09T08:03:27.624Z,10.08
2022-10-09T08:07:34.821Z,10.07
2022-10-09T08:11:40.106Z,10.08
2022-10-09T08:15:43.207Z,10.21
2022-10-09T08:19:45.178Z,10.32
2022-10-09T08:23:47.101Z,10.40
2022-10-09T08:27:52.261Z,10.59
2022-10-09T08:31:54.148Z,10.67
2022-10-09T08:36:07.319Z,10.68
2022-10-09T08:40:16.817Z,10.65
2022-10-09T08:44:33.375Z,10.63
2022-10-09T08:48:43.911Z,10.62
2022-10-09T08:52:50.190Z,10.53
2022-10-09T08:56:52.678Z,10.38
2022-10-09T09:01:06.957Z,10.25
2022-10-09T09:05:36.449Z,10.19
2022-10-09T09:09:50.668Z,10.26
2022-10-09T09:14:21.543Z,10.26
2022-10-09T09:18:42.829Z,10.34
2022-10-09T09:22:48.557Z,10.50
2022-10-09T09:26:55.339Z,10.59
2022-10-09T09:31:12.781Z,10.59
2022-10-09T09:35:20.787Z,10.60
2022-10-09T09:40:08.327Z,10.76
2022-10-09T09:43:47.834Z,10.88
2022-10-09T09:48:04.175Z,11.02
2022-10-09T09:52:08.866Z,11.09
2022-10-09T09:56:10.876Z,11.05
2022-10-09T10:00:15.796Z,10.95
2022-10-09T10:04:20.233Z,10.94
2022-10-09T10:08:33.438Z,11.03
2022-10-09T10:13:02.421Z,11.17
2022-10-09T10:17:05.511Z,11.29
2022-10-09T10:21:12.392Z,11.41
2022-10-09T10:25:18.437Z,11.37
2022-10-09T10:29:27.127Z,11.34
2022-10-09T10:33:33.179Z,11.32
2022-10-09T10:37:46.687Z,11.34
2022-10-09T10:41:53.406Z,11.45
2022-10-09T10:46:56.967Z,11.63
2022-10-09T10:51:20.193Z,11.68
2022-10-09T10:55:52.582Z,11.64
2022-10-09T11:00:10.459Z,11.62
2022-10-09T11:04:32.926Z,11.57
2022-10-09T11:08:55.898Z,11.59
2022-10-09T11:13:03.393Z,11.64
2022-10-09T11:17:28.427Z,11.65
2022-10-09T11:21:55.032Z,11.59
2022-10-09T11:26:45.103Z,11.62
2022-10-09T11:31:02.919Z,11.71
2022-10-09T11:35:40.254Z,11.71
2022-10-09T11:39:43.136Z,11.62
2022-10-09T11:44:00.729Z,11.66
2022-10-09T11:48:12.442Z,11.79
2022-10-09T11:52:35.319Z,11.87
2022-10-09T11:56:37.304Z,11.84
2022-10-09T12:00:42.574Z,11.69
2022-10-09T12:05:01.078Z,11.83
2022-10-09T12:09:07.769Z,12.09
2022-10-09T12:13:29.645Z,12.22
2022-10-09T12:17:34.948Z,12.37
2022-10-09T12:21:45.405Z,12.47
2022-10-09T12:25:48.571Z,12.50
2022-10-09T12:29:55.495Z,12.49
2022-10-09T12:34:05.590Z,12.38
2022-10-09T12:38:26.741Z,12.30
2022-10-09T12:42:29.123Z,12.21
2022-10-09T12:46:35.842Z,12.09
2022-10-09T12:50:38.986Z,12.09
2022-10-09T12:54:43.856Z,12.10
2022-10-09T12:58:46.067Z,12.08
2022-10-09T13:02:48.507Z,12.03
2022-10-09T13:06:52.286Z,11.79
2022-10-09T13:10:55.069Z,11.59
2022-10-09T13:15:04.556Z,11.51
2022-10-09T13:19:23.980Z,11.52
2022-10-09T13:23:29.742Z,11.56
2022-10-09T13:27:35.015Z,11.55
2022-10-09T13:31:37.567Z,11.47
2022-10-09T13:35:39.548Z,11.40
2022-10-09T13:39:43.119Z,11.41
2022-10-09T13:43:45.733Z,11.41
2022-10-09T13:47:48.158Z,11.41
2022-10-09T13:51:50.439Z,11.38
2022-10-09T13:55:55.924Z,11.37
2022-10-09T13:59:59.772Z,11.31
2022-10-09T14:04:01.940Z,11.35
2022-10-09T14:08:04.380Z,11.37
2022-10-09T14:12:06.397Z,11.36
2022-10-09T14:16:10.538Z,11.31
2022-10-09T14:20:12.504Z,11.26
2022-10-09T14:24:15.064Z,11.18
2022-10-09T14:28:17.091Z,11.08
2022-10-09T14:32:19.095Z,11.03
2022-10-09T14:36:21.020Z,11.00
2022-10-09T14:40:22.913Z,10.93
2022-10-09T14:44:25.261Z,10.89
2022-10-09T14:48:27.082Z,10.84
2022-10-09T14:52:29.002Z,10.84
2022-10-09T14:56:31.224Z,10.84
2022-10-09T15:00:33.141Z,10.85
2022-10-09T15:04:35.039Z,10.84
2022-10-09T15:08:40.300Z,10.83
2022-10-09T15:12:42.129Z,10.91
2022-10-09T15:16:44.440Z,11.02
2022-10-09T15:20:46.550Z,11.14
2022-10-09T15:24:49.110Z,11.20
2022-10-09T15:28:51.125Z,11.21
2022-10-09T15:32:53.161Z,11.21
2022-10-09T15:36:55.067Z,11.21
2022-10-09T15:40:57.047Z,11.18
2022-10-09T15:44:59.573Z,11.11
2022-10-09T15:49:01.553Z,10.96
2022-10-09T15:53:10.086Z,10.78
2022-10-09T15:57:12.270Z,10.60
2022-10-09T16:01:16.902Z,10.47
2022-10-09T16:05:19.485Z,10.37
2022-10-09T16:09:21.577Z,10.29
2022-10-09T16:13:26.266Z,10.24
2022-10-09T16:17:28.077Z,10.16
2022-10-09T16:21:30.091Z,10.07
2022-10-09T16:25:32.644Z,9.86
2022-10-09T16:29:35.561Z,9.66
2022-10-09T16:33:37.623Z,9.49
2022-10-09T16:37:39.520Z,9.32
2022-10-09T16:41:42.173Z,9.16
2022-10-09T16:45:44.962Z,9.00
2022-10-09T16:49:47.005Z,8.84
2022-10-09T16:53:53.528Z,8.74
2022-10-09T16:57:55.997Z,8.71
2022-10-09T17:01:59.818Z,8.66
2022-10-09T17:06:05.896Z,8.54
2022-10-09T17:10:09.067Z,8.43
2022-10-09T17:14:11.647Z,8.23
2022-10-09T17:18:13.525Z,8.00
2022-10-09T17:22:15.367Z,7.83
2022-10-09T17:26:19.090Z,7.62
2022-10-09T17:30:21.484Z,7.49
2022-10-09T17:34:23.615Z,7.41
2022-10-09T17:38:25.735Z,7.29
2022-10-09T17:42:27.555Z,7.16
2022-10-09T17:46:30.259Z,7.06
2022-10-09T17:50:32.594Z,6.94
2022-10-09T17:54:34.567Z,6.80
2022-10-09T17:58:36.716Z,6.70
2022-10-09T18:02:38.645Z,6.65
2022-10-09T18:06:41.075Z,6.58
2022-10-09T18:10:43.571Z,6.43
2022-10-09T18:14:46.146Z,6.38
2022-10-09T18:18:48.652Z,6.42
2022-10-09T18:22:50.521Z,6.42
2022-10-09T18:26:59.461Z,6.36
2022-10-09T18:31:13.968Z,6.18
2022-10-09T18:35:16.298Z,6.06
2022-10-09T18:39:20.985Z,6.03
2022-10-09T18:43:22.942Z,5.97
2022-10-09T18:47:28.128Z,5.87
2022-10-09T18:51:31.399Z,5.83
2022-10-09T18:55:33.623Z,5.77
2022-10-09T18:59:37.633Z,5.66
2022-10-09T19:03:44.774Z,5.55
2022-10-09T19:07:49.661Z,5.43
2022-10-09T19:11:52.237Z,5.36
2022-10-09T19:15:58.200Z,5.31
2022-10-09T19:20:00.675Z,5.29
2022-10-09T19:24:05.642Z,5.27
2022-10-09T19:28:07.513Z,5.18
2022-10-09T19:32:09.417Z,5.14
2022-10-09T19:36:13.218Z,5.13
2022-10-09T19:40:15.176Z,5.05
2022-10-09T19:44:17.435Z,5.00
2022-10-09T19:48:19.960Z,4.95
2022-10-09T19:52:22.785Z,4.90
2022-10-09T19:56:27.130Z,4.80
2022-10-09T20:00:29.532Z,4.75
2022-10-09T20:04:31.749Z,4.70
2022-10-09T20:08:34.201Z,4.59
2022-10-09T20:12:36.128Z,4.51
2022-10-09T20:16:38.113Z,4.39
2022-10-09T20:20:46.414Z,4.38
2022-10-09T20:24:48.281Z,4.43
2022-10-09T20:28:53.452Z,4.34
2022-10-09T20:32:58.994Z,4.26
2022-10-09T20:37:01.247Z,4.26
2022-10-09T20:41:06.245Z,4.19
2022-10-09T20:45:08.372Z,4.16
2022-10-09T20:49:12.845Z,4.22
2022-10-09T20:53:16.248Z,4.24
2022-10-09T20:57:18.144Z,4.18
2022-10-09T21:01:21.046Z,4.02
2022-10-09T21:05:23.149Z,3.89
2022-10-09T21:09:27.482Z,3.80
2022-10-09T21:13:31.480Z,3.74
2022-10-09T21:17:33.380Z,3.71
2022-10-09T21:21:35.561Z,3.65
2022-10-09T21:25:38.059Z,3.56
2022-10-09T21:29:39.914Z,3.44
2022-10-09T21:33:42.216Z,3.42
2022-10-09T21:37:44.248Z,3.42
2022-10-09T21:41:46.289Z,3.35
2022-10-09T21:45:51.543Z,3.29
2022-10-09T21:49:53.505Z,3.31
2022-10-09T21:53:55.458Z,3.39
2022-10-09T21:57:57.384Z,3.41
2022-10-09T22:01:59.268Z,3.41
2022-10-09T22:06:06.119Z,3.40
2022-10-09T22:10:08.340Z,3.36
2022-10-09T22:14:10.168Z,3.21
2022-10-09T22:18:12.297Z,3.14
2022-10-09T22:22:14.319Z,3.15
2022-10-09T22:26:19.041Z,3.14
2022-10-09T22:30:20.837Z,3.11
2022-10-09T22:34:22.770Z,3.12
2022-10-09T22:38:24.621Z,3.14
2022-10-09T22:42:26.436Z,3.11
2022-10-09T22:46:31.754Z,3.10
2022-10-09T22:50:36.457Z,3.04
2022-10-09T22:54:38.268Z,3.00
2022-10-09T22:58:40.142Z,2.90
2022-10-09T23:02:41.968Z,2.80
2022-10-09T23:06:45.034Z,2.72
2022-10-09T23:10:46.830Z,2.74
2022-10-09T23:14:48.711Z,2.70
2022-10-09T23:18:50.994Z,2.68
2022-10-09T23:22:53.545Z,2.64
2022-10-09T23:26:55.401Z,2.58
2022-10-09T23:31:05.102Z,2.55
2022-10-09T23:35:07.327Z,2.50
2022-10-09T23:39:09.362Z,2.45
2022-10-09T23:43:11.141Z,2.39
2022-10-09T23:47:12.965Z,2.32
2022-10-09T23:51:15.315Z,2.27
2022-10-09T23:55:17.166Z,2.24
2022-10-09T23:59:19.591Z,2.21
